sensor_id;sensor_type;location;lat;lon;timestamp;P1;P2;P0
26720;PMS1003;15950;51.112;6.966;2024-03-08T00:00:45;019;015;
26720;PMS1003;15950;51.112;6.966;2024-03-08T00:03:44;019;013;
26720;PMS1003;15950;51.112;6.966;2024-03-08T00:06:44;021;015;
26720;PMS1003;15950;51.112;6.966;2024-03-08T00:09:47;021;018;
26720;PMS1003;15950;51.112;6.966;2024-03-08T00:12:44;017;012;
26720;PMS1003;15950;51.112;6.966;2024-03-08T00:15:44;021;015;
26720;PMS1003;15950;51.112;6.966;2024-03-08T00:18:45;019;013;
26720;PMS1003;15950;51.112;6.966;2024-03-08T00:21:44;020;017;
26720;PMS1003;15950;51.112;6.966;2024-03-08T00:24:44;021;017;
26720;PMS1003;15950;51.112;6.966;2024-03-08T00:27:44;024;017;
26720;PMS1003;15950;51.112;6.966;2024-03-08T00:30:44;017;012;
26720;PMS1003;15950;51.112;6.966;2024-03-08T00:33:44;020;014;
26720;PMS1003;15950;51.112;6.966;2024-03-08T00:36:44;027;019;
26720;PMS1003;15950;51.112;6.966;2024-03-08T00:39:44;020;015;
26720;PMS1003;15950;51.112;6.966;2024-03-08T00:42:44;023;016;
26720;PMS1003;15950;51.112;6.966;2024-03-08T00:45:44;021;015;
26720;PMS1003;15950;51.112;6.966;2024-03-08T00:48:44;019;016;
26720;PMS1003;15950;51.112;6.966;2024-03-08T00:51:44;018;014;
26720;PMS1003;15950;51.112;6.966;2024-03-08T00:54:44;023;016;
26720;PMS1003;15950;51.112;6.966;2024-03-08T00:57:44;017;012;
26720;PMS1003;15950;51.112;6.966;2024-03-08T01:00:44;021;015;
26720;PMS1003;15950;51.112;6.966;2024-03-08T01:03:44;023;016;
26720;PMS1003;15950;51.112;6.966;2024-03-08T01:06:44;026;018;
26720;PMS1003;15950;51.112;6.966;2024-03-08T01:09:44;018;014;
26720;PMS1003;15950;51.112;6.966;2024-03-08T01:12:44;021;015;
26720;PMS1003;15950;51.112;6.966;2024-03-08T01:15:45;022;017;
26720;PMS1003;15950;51.112;6.966;2024-03-08T01:18:44;023;017;
26720;PMS1003;15950;51.112;6.966;2024-03-08T01:21:44;023;016;
26720;PMS1003;15950;51.112;6.966;2024-03-08T01:24:44;023;016;
26720;PMS1003;15950;51.112;6.966;2024-03-08T01:27:44;020;014;
26720;PMS1003;15950;51.112;6.966;2024-03-08T01:30:44;020;014;
26720;PMS1003;15950;51.112;6.966;2024-03-08T01:33:44;021;016;
26720;PMS1003;15950;51.112;6.966;2024-03-08T01:36:44;024;018;
26720;PMS1003;15950;51.112;6.966;2024-03-08T01:39:44;020;014;
26720;PMS1003;15950;51.112;6.966;2024-03-08T01:42:44;023;016;
26720;PMS1003;15950;51.112;6.966;2024-03-08T01:45:44;015;012;
26720;PMS1003;15950;51.112;6.966;2024-03-08T01:48:44;019;013;
26720;PMS1003;15950;51.112;6.966;2024-03-08T01:51:44;026;018;
26720;PMS1003;15950;51.112;6.966;2024-03-08T01:54:44;022;016;
26720;PMS1003;15950;51.112;6.966;2024-03-08T01:57:44;024;019;
26720;PMS1003;15950;51.112;6.966;2024-03-08T02:00:44;023;020;
26720;PMS1003;15950;51.112;6.966;2024-03-08T02:03:44;021;015;
26720;PMS1003;15950;51.112;6.966;2024-03-08T02:06:44;026;018;
26720;PMS1003;15950;51.112;6.966;2024-03-08T02:09:44;024;017;
26720;PMS1003;15950;51.112;6.966;2024-03-08T02:12:45;021;020;
26720;PMS1003;15950;51.112;6.966;2024-03-08T02:18:44;026;018;
26720;PMS1003;15950;51.112;6.966;2024-03-08T02:21:44;019;013;
26720;PMS1003;15950;51.112;6.966;2024-03-08T02:24:44;024;017;
26720;PMS1003;15950;51.112;6.966;2024-03-08T02:27:44;025;018;
26720;PMS1003;15950;51.112;6.966;2024-03-08T02:30:47;020;015;
26720;PMS1003;15950;51.112;6.966;2024-03-08T02:33:44;020;014;
26720;PMS1003;15950;51.112;6.966;2024-03-08T02:36:44;021;016;
26720;PMS1003;15950;51.112;6.966;2024-03-08T02:39:44;024;018;
26720;PMS1003;15950;51.112;6.966;2024-03-08T02:42:44;017;012;
26720;PMS1003;15950;51.112;6.966;2024-03-08T02:45:44;021;015;
26720;PMS1003;15950;51.112;6.966;2024-03-08T02:48:44;024;019;
26720;PMS1003;15950;51.112;6.966;2024-03-08T02:51:44;018;013;
26720;PMS1003;15950;51.112;6.966;2024-03-08T02:54:44;021;017;
26720;PMS1003;15950;51.112;6.966;2024-03-08T02:57:44;025;019;
26720;PMS1003;15950;51.112;6.966;2024-03-08T03:00:44;022;016;
26720;PMS1003;15950;51.112;6.966;2024-03-08T03:03:44;019;013;
26720;PMS1003;15950;51.112;6.966;2024-03-08T03:06:44;019;016;
26720;PMS1003;15950;51.112;6.966;2024-03-08T03:09:44;025;018;
26720;PMS1003;15950;51.112;6.966;2024-03-08T03:12:45;026;018;
26720;PMS1003;15950;51.112;6.966;2024-03-08T03:15:46;019;013;
26720;PMS1003;15950;51.112;6.966;2024-03-08T03:18:44;023;016;
26720;PMS1003;15950;51.112;6.966;2024-03-08T03:21:44;021;015;
26720;PMS1003;15950;51.112;6.966;2024-03-08T03:24:44;019;013;
26720;PMS1003;15950;51.112;6.966;2024-03-08T03:27:44;018;018;
26720;PMS1003;15950;51.112;6.966;2024-03-08T03:30:45;022;019;
26720;PMS1003;15950;51.112;6.966;2024-03-08T03:33:44;021;016;
26720;PMS1003;15950;51.112;6.966;2024-03-08T03:36:44;024;019;
26720;PMS1003;15950;51.112;6.966;2024-03-08T03:39:44;024;017;
26720;PMS1003;15950;51.112;6.966;2024-03-08T03:42:44;025;019;
26720;PMS1003;15950;51.112;6.966;2024-03-08T03:45:44;021;015;
26720;PMS1003;15950;51.112;6.966;2024-03-08T03:48:44;020;016;
26720;PMS1003;15950;51.112;6.966;2024-03-08T03:51:44;016;011;
26720;PMS1003;15950;51.112;6.966;2024-03-08T03:54:44;023;016;
26720;PMS1003;15950;51.112;6.966;2024-03-08T03:57:44;023;016;
26720;PMS1003;15950;51.112;6.966;2024-03-08T04:00:44;021;015;
26720;PMS1003;15950;51.112;6.966;2024-03-08T04:03:44;024;020;
26720;PMS1003;15950;51.112;6.966;2024-03-08T04:06:44;025;019;
26720;PMS1003;15950;51.112;6.966;2024-03-08T04:09:44;020;014;
26720;PMS1003;15950;51.112;6.966;2024-03-08T04:12:45;017;012;
26720;PMS1003;15950;51.112;6.966;2024-03-08T04:15:44;022;016;
26720;PMS1003;15950;51.112;6.966;2024-03-08T04:18:44;023;018;
26720;PMS1003;15950;51.112;6.966;2024-03-08T04:21:44;022;016;
26720;PMS1003;15950;51.112;6.966;2024-03-08T04:24:44;020;014;
26720;PMS1003;15950;51.112;6.966;2024-03-08T04:27:44;022;016;
26720;PMS1003;15950;51.112;6.966;2024-03-08T04:30:44;022;016;
26720;PMS1003;15950;51.112;6.966;2024-03-08T04:33:44;022;020;
26720;PMS1003;15950;51.112;6.966;2024-03-08T04:36:44;023;016;
26720;PMS1003;15950;51.112;6.966;2024-03-08T04:39:44;019;015;
26720;PMS1003;15950;51.112;6.966;2024-03-08T04:42:44;026;018;
26720;PMS1003;15950;51.112;6.966;2024-03-08T04:45:44;019;015;
26720;PMS1003;15950;51.112;6.966;2024-03-08T04:48:44;024;017;
26720;PMS1003;15950;51.112;6.966;2024-03-08T04:51:44;024;017;
26720;PMS1003;15950;51.112;6.966;2024-03-08T04:54:44;020;016;
26720;PMS1003;15950;51.112;6.966;2024-03-08T04:57:44;022;016;
26720;PMS1003;15950;51.112;6.966;2024-03-08T05:00:44;021;015;
26720;PMS1003;15950;51.112;6.966;2024-03-08T05:03:44;025;018;
26720;PMS1003;15950;51.112;6.966;2024-03-08T05:06:44;012;008;
26720;PMS1003;15950;51.112;6.966;2024-03-08T05:09:44;017;012;
26720;PMS1003;15950;51.112;6.966;2024-03-08T05:12:44;017;012;
26720;PMS1003;15950;51.112;6.966;2024-03-08T05:15:47;012;008;
26720;PMS1003;15950;51.112;6.966;2024-03-08T05:18:44;027;019;
26720;PMS1003;15950;51.112;6.966;2024-03-08T05:21:44;018;013;
26720;PMS1003;15950;51.112;6.966;2024-03-08T05:24:44;020;014;
26720;PMS1003;15950;51.112;6.966;2024-03-08T05:27:44;018;013;
26720;PMS1003;15950;51.112;6.966;2024-03-08T05:30:44;018;014;
26720;PMS1003;15950;51.112;6.966;2024-03-08T05:33:44;021;015;
26720;PMS1003;15950;51.112;6.966;2024-03-08T05:36:44;014;010;
26720;PMS1003;15950;51.112;6.966;2024-03-08T05:39:44;023;017;
26720;PMS1003;15950;51.112;6.966;2024-03-08T05:42:44;024;017;
26720;PMS1003;15950;51.112;6.966;2024-03-08T05:45:47;014;010;
26720;PMS1003;15950;51.112;6.966;2024-03-08T05:48:44;017;015;
26720;PMS1003;15950;51.112;6.966;2024-03-08T05:51:44;017;013;
26720;PMS1003;15950;51.112;6.966;2024-03-08T05:54:44;016;011;
26720;PMS1003;15950;51.112;6.966;2024-03-08T05:57:44;020;014;
26720;PMS1003;15950;51.112;6.966;2024-03-08T06:00:44;022;016;
26720;PMS1003;15950;51.112;6.966;2024-03-08T06:03:44;021;019;
26720;PMS1003;15950;51.112;6.966;2024-03-08T06:06:44;026;020;
26720;PMS1003;15950;51.112;6.966;2024-03-08T06:09:44;016;012;
26720;PMS1003;15950;51.112;6.966;2024-03-08T06:12:44;021;015;
26720;PMS1003;15950;51.112;6.966;2024-03-08T06:15:44;021;015;
26720;PMS1003;15950;51.112;6.966;2024-03-08T06:18:44;013;009;
26720;PMS1003;15950;51.112;6.966;2024-03-08T06:21:44;023;016;
26720;PMS1003;15950;51.112;6.966;2024-03-08T06:24:44;019;015;
26720;PMS1003;15950;51.112;6.966;2024-03-08T06:27:44;021;015;
26720;PMS1003;15950;51.112;6.966;2024-03-08T06:30:44;019;015;
26720;PMS1003;15950;51.112;6.966;2024-03-08T06:33:44;021;015;
26720;PMS1003;15950;51.112;6.966;2024-03-08T06:36:44;017;015;
26720;PMS1003;15950;51.112;6.966;2024-03-08T06:39:44;019;015;
26720;PMS1003;15950;51.112;6.966;2024-03-08T06:42:44;023;018;
26720;PMS1003;15950;51.112;6.966;2024-03-08T06:45:44;021;015;
26720;PMS1003;15950;51.112;6.966;2024-03-08T06:48:44;023;019;
26720;PMS1003;15950;51.112;6.966;2024-03-08T06:51:44;024;017;
26720;PMS1003;15950;51.112;6.966;2024-03-08T06:54:44;022;018;
26720;PMS1003;15950;51.112;6.966;2024-03-08T06:57:44;026;018;
26720;PMS1003;15950;51.112;6.966;2024-03-08T07:00:44;016;012;
26720;PMS1003;15950;51.112;6.966;2024-03-08T07:03:44;021;016;
26720;PMS1003;15950;51.112;6.966;2024-03-08T07:06:44;026;018;
26720;PMS1003;15950;51.112;6.966;2024-03-08T07:09:44;023;016;
26720;PMS1003;15950;51.112;6.966;2024-03-08T07:12:44;026;018;
26720;PMS1003;15950;51.112;6.966;2024-03-08T07:15:44;026;018;
26720;PMS1003;15950;51.112;6.966;2024-03-08T07:18:44;023;016;
26720;PMS1003;15950;51.112;6.966;2024-03-08T07:21:44;021;015;
26720;PMS1003;15950;51.112;6.966;2024-03-08T07:24:44;019;013;
26720;PMS1003;15950;51.112;6.966;2024-03-08T07:27:44;024;017;
26720;PMS1003;15950;51.112;6.966;2024-03-08T07:30:44;019;016;
26720;PMS1003;15950;51.112;6.966;2024-03-08T07:33:44;023;016;
26720;PMS1003;15950;51.112;6.966;2024-03-08T07:36:44;024;017;
26720;PMS1003;15950;51.112;6.966;2024-03-08T07:39:44;022;016;
26720;PMS1003;15950;51.112;6.966;2024-03-08T07:42:44;017;012;
26720;PMS1003;15950;51.112;6.966;2024-03-08T07:45:44;021;015;
26720;PMS1003;15950;51.112;6.966;2024-03-08T07:48:44;020;014;
26720;PMS1003;15950;51.112;6.966;2024-03-08T07:51:44;014;011;
26720;PMS1003;15950;51.112;6.966;2024-03-08T07:54:44;022;017;
26720;PMS1003;15950;51.112;6.966;2024-03-08T07:57:44;019;014;
26720;PMS1003;15950;51.112;6.966;2024-03-08T08:00:44;019;016;
26720;PMS1003;15950;51.112;6.966;2024-03-08T08:03:44;021;015;
26720;PMS1003;15950;51.112;6.966;2024-03-08T08:06:44;020;014;
26720;PMS1003;15950;51.112;6.966;2024-03-08T08:09:44;019;015;
26720;PMS1003;15950;51.112;6.966;2024-03-08T08:12:44;013;011;
26720;PMS1003;15950;51.112;6.966;2024-03-08T08:15:44;023;018;
26720;PMS1003;15950;51.112;6.966;2024-03-08T08:18:44;022;016;
26720;PMS1003;15950;51.112;6.966;2024-03-08T08:21:44;016;014;
26720;PMS1003;15950;51.112;6.966;2024-03-08T08:24:44;014;010;
26720;PMS1003;15950;51.112;6.966;2024-03-08T08:27:44;017;012;
26720;PMS1003;15950;51.112;6.966;2024-03-08T08:30:44;015;015;
26720;PMS1003;15950;51.112;6.966;2024-03-08T08:33:44;019;013;
26720;PMS1003;15950;51.112;6.966;2024-03-08T08:36:44;020;014;
26720;PMS1003;15950;51.112;6.966;2024-03-08T08:39:44;021;015;
26720;PMS1003;15950;51.112;6.966;2024-03-08T08:42:44;012;009;
26720;PMS1003;15950;51.112;6.966;2024-03-08T08:45:44;014;010;
26720;PMS1003;15950;51.112;6.966;2024-03-08T08:48:44;014;013;
26720;PMS1003;15950;51.112;6.966;2024-03-08T08:51:48;014;011;
26720;PMS1003;15950;51.112;6.966;2024-03-08T08:54:44;015;013;
26720;PMS1003;15950;51.112;6.966;2024-03-08T08:57:44;018;013;
26720;PMS1003;15950;51.112;6.966;2024-03-08T09:00:44;018;013;
26720;PMS1003;15950;51.112;6.966;2024-03-08T09:03:44;019;013;
26720;PMS1003;15950;51.112;6.966;2024-03-08T09:06:44;012;008;
26720;PMS1003;15950;51.112;6.966;2024-03-08T09:09:45;015;013;
26720;PMS1003;15950;51.112;6.966;2024-03-08T09:12:44;019;015;
26720;PMS1003;15950;51.112;6.966;2024-03-08T09:15:44;011;008;
26720;PMS1003;15950;51.112;6.966;2024-03-08T09:18:44;014;010;
26720;PMS1003;15950;51.112;6.966;2024-03-08T09:21:44;016;011;
26720;PMS1003;15950;51.112;6.966;2024-03-08T09:24:44;019;015;
26720;PMS1003;15950;51.112;6.966;2024-03-08T09:27:44;010;009;
26720;PMS1003;15950;51.112;6.966;2024-03-08T09:30:44;020;014;
26720;PMS1003;15950;51.112;6.966;2024-03-08T09:33:44;019;013;
26720;PMS1003;15950;51.112;6.966;2024-03-08T09:36:44;019;013;
26720;PMS1003;15950;51.112;6.966;2024-03-08T09:39:44;016;014;
26720;PMS1003;15950;51.112;6.966;2024-03-08T09:42:44;014;010;
26720;PMS1003;15950;51.112;6.966;2024-03-08T09:45:45;015;011;
26720;PMS1003;15950;51.112;6.966;2024-03-08T09:48:44;016;013;
26720;PMS1003;15950;51.112;6.966;2024-03-08T09:51:44;014;010;
26720;PMS1003;15950;51.112;6.966;2024-03-08T09:54:44;012;008;
26720;PMS1003;15950;51.112;6.966;2024-03-08T09:57:44;012;011;
26720;PMS1003;15950;51.112;6.966;2024-03-08T10:00:44;015;011;
26720;PMS1003;15950;51.112;6.966;2024-03-08T10:03:44;014;010;
26720;PMS1003;15950;51.112;6.966;2024-03-08T10:06:44;011;010;
26720;PMS1003;15950;51.112;6.966;2024-03-08T10:09:44;010;007;
26720;PMS1003;15950;51.112;6.966;2024-03-08T10:12:44;014;010;
26720;PMS1003;15950;51.112;6.966;2024-03-08T10:15:44;013;010;
26720;PMS1003;15950;51.112;6.966;2024-03-08T10:18:47;017;012;
26720;PMS1003;15950;51.112;6.966;2024-03-08T10:21:50;012;009;
26720;PMS1003;15950;51.112;6.966;2024-03-08T10:24:47;011;008;
26720;PMS1003;15950;51.112;6.966;2024-03-08T10:27:44;015;011;
26720;PMS1003;15950;51.112;6.966;2024-03-08T10:30:46;013;009;
26720;PMS1003;15950;51.112;6.966;2024-03-08T10:33:44;014;010;
26720;PMS1003;15950;51.112;6.966;2024-03-08T10:36:44;009;006;
26720;PMS1003;15950;51.112;6.966;2024-03-08T10:39:45;010;007;
26720;PMS1003;15950;51.112;6.966;2024-03-08T10:42:51;007;006;
26720;PMS1003;15950;51.112;6.966;2024-03-08T10:45:44;007;005;
26720;PMS1003;15950;51.112;6.966;2024-03-08T10:48:44;007;005;
26720;PMS1003;15950;51.112;6.966;2024-03-08T10:51:44;012;008;
26720;PMS1003;15950;51.112;6.966;2024-03-08T10:54:44;009;006;
26720;PMS1003;15950;51.112;6.966;2024-03-08T10:57:44;013;010;
26720;PMS1003;15950;51.112;6.966;2024-03-08T11:00:44;010;008;
26720;PMS1003;15950;51.112;6.966;2024-03-08T11:03:44;006;004;
26720;PMS1003;15950;51.112;6.966;2024-03-08T11:06:45;009;006;
26720;PMS1003;15950;51.112;6.966;2024-03-08T11:09:44;014;010;
26720;PMS1003;15950;51.112;6.966;2024-03-08T11:12:44;011;009;
26720;PMS1003;15950;51.112;6.966;2024-03-08T11:15:44;013;012;
26720;PMS1003;15950;51.112;6.966;2024-03-08T11:18:45;007;005;
26720;PMS1003;15950;51.112;6.966;2024-03-08T11:21:44;007;005;
26720;PMS1003;15950;51.112;6.966;2024-03-08T11:24:44;005;003;
26720;PMS1003;15950;51.112;6.966;2024-03-08T11:27:52;012;008;
26720;PMS1003;15950;51.112;6.966;2024-03-08T11:30:44;009;006;
26720;PMS1003;15950;51.112;6.966;2024-03-08T11:33:45;010;007;
26720;PMS1003;15950;51.112;6.966;2024-03-08T11:36:44;016;011;
26720;PMS1003;15950;51.112;6.966;2024-03-08T11:39:47;009;006;
26720;PMS1003;15950;51.112;6.966;2024-03-08T11:42:47;007;006;
26720;PMS1003;15950;51.112;6.966;2024-03-08T11:45:44;007;005;
26720;PMS1003;15950;51.112;6.966;2024-03-08T11:48:44;009;006;
26720;PMS1003;15950;51.112;6.966;2024-03-08T11:51:44;009;008;
26720;PMS1003;15950;51.112;6.966;2024-03-08T11:57:44;009;007;
26720;PMS1003;15950;51.112;6.966;2024-03-08T12:00:44;014;010;
26720;PMS1003;15950;51.112;6.966;2024-03-08T12:03:44;012;008;
26720;PMS1003;15950;51.112;6.966;2024-03-08T12:06:44;003;002;
26720;PMS1003;15950;51.112;6.966;2024-03-08T12:09:44;012;008;
26720;PMS1003;15950;51.112;6.966;2024-03-08T12:12:44;008;006;
26720;PMS1003;15950;51.112;6.966;2024-03-08T12:15:44;006;005;
26720;PMS1003;15950;51.112;6.966;2024-03-08T12:18:44;006;004;
26720;PMS1003;15950;51.112;6.966;2024-03-08T12:21:44;006;005;
26720;PMS1003;15950;51.112;6.966;2024-03-08T12:24:44;009;006;
26720;PMS1003;15950;51.112;6.966;2024-03-08T12:27:44;009;006;
26720;PMS1003;15950;51.112;6.966;2024-03-08T12:36:44;007;005;
26720;PMS1003;15950;51.112;6.966;2024-03-08T12:39:44;010;007;
26720;PMS1003;15950;51.112;6.966;2024-03-08T12:42:44;012;008;
26720;PMS1003;15950;51.112;6.966;2024-03-08T12:45:44;011;009;
26720;PMS1003;15950;51.112;6.966;2024-03-08T12:48:44;007;005;
26720;PMS1003;15950;51.112;6.966;2024-03-08T12:51:44;010;007;
26720;PMS1003;15950;51.112;6.966;2024-03-08T12:54:44;008;006;
26720;PMS1003;15950;51.112;6.966;2024-03-08T12:57:44;005;004;
26720;PMS1003;15950;51.112;6.966;2024-03-08T13:00:44;009;006;
26720;PMS1003;15950;51.112;6.966;2024-03-08T13:03:44;005;003;
26720;PMS1003;15950;51.112;6.966;2024-03-08T13:06:44;006;004;
26720;PMS1003;15950;51.112;6.966;2024-03-08T13:09:44;007;006;
26720;PMS1003;15950;51.112;6.966;2024-03-08T13:12:44;007;005;
26720;PMS1003;15950;51.112;6.966;2024-03-08T13:15:44;006;004;
26720;PMS1003;15950;51.112;6.966;2024-03-08T13:18:44;010;009;
26720;PMS1003;15950;51.112;6.966;2024-03-08T13:21:44;004;003;
26720;PMS1003;15950;51.112;6.966;2024-03-08T13:24:44;010;007;
26720;PMS1003;15950;51.112;6.966;2024-03-08T13:27:44;014;010;
26720;PMS1003;15950;51.112;6.966;2024-03-08T13:30:44;005;003;
26720;PMS1003;15950;51.112;6.966;2024-03-08T13:33:44;010;007;
26720;PMS1003;15950;51.112;6.966;2024-03-08T13:36:44;014;011;
26720;PMS1003;15950;51.112;6.966;2024-03-08T13:39:44;012;010;
26720;PMS1003;15950;51.112;6.966;2024-03-08T13:42:44;014;010;
26720;PMS1003;15950;51.112;6.966;2024-03-08T13:45:44;010;007;
26720;PMS1003;15950;51.112;6.966;2024-03-08T13:48:44;005;004;
26720;PMS1003;15950;51.112;6.966;2024-03-08T13:51:44;007;005;
26720;PMS1003;15950;51.112;6.966;2024-03-08T13:54:44;009;006;
26720;PMS1003;15950;51.112;6.966;2024-03-08T13:57:44;008;006;
26720;PMS1003;15950;51.112;6.966;2024-03-08T14:00:44;013;009;
26720;PMS1003;15950;51.112;6.966;2024-03-08T14:03:44;008;006;
26720;PMS1003;15950;51.112;6.966;2024-03-08T14:06:44;007;005;
26720;PMS1003;15950;51.112;6.966;2024-03-08T14:09:44;013;010;
26720;PMS1003;15950;51.112;6.966;2024-03-08T14:12:44;012;009;
26720;PMS1003;15950;51.112;6.966;2024-03-08T14:15:44;010;007;
26720;PMS1003;15950;51.112;6.966;2024-03-08T14:18:44;015;011;
26720;PMS1003;15950;51.112;6.966;2024-03-08T14:21:44;012;008;
26720;PMS1003;15950;51.112;6.966;2024-03-08T14:24:44;012;008;
26720;PMS1003;15950;51.112;6.966;2024-03-08T14:27:44;012;009;
26720;PMS1003;15950;51.112;6.966;2024-03-08T14:30:44;009;007;
26720;PMS1003;15950;51.112;6.966;2024-03-08T14:33:44;015;011;
26720;PMS1003;15950;51.112;6.966;2024-03-08T14:36:44;010;007;
26720;PMS1003;15950;51.112;6.966;2024-03-08T14:39:44;014;010;
26720;PMS1003;15950;51.112;6.966;2024-03-08T14:42:44;009;006;
26720;PMS1003;15950;51.112;6.966;2024-03-08T14:45:44;014;010;
26720;PMS1003;15950;51.112;6.966;2024-03-08T14:48:44;012;008;
26720;PMS1003;15950;51.112;6.966;2024-03-08T14:51:44;014;010;
26720;PMS1003;15950;51.112;6.966;2024-03-08T14:54:44;014;010;
26720;PMS1003;15950;51.112;6.966;2024-03-08T14:57:44;013;009;
26720;PMS1003;15950;51.112;6.966;2024-03-08T15:00:44;017;013;
26720;PMS1003;15950;51.112;6.966;2024-03-08T15:03:44;010;010;
26720;PMS1003;15950;51.112;6.966;2024-03-08T15:06:44;009;007;
26720;PMS1003;15950;51.112;6.966;2024-03-08T15:09:44;014;010;
26720;PMS1003;15950;51.112;6.966;2024-03-08T15:12:44;019;013;
26720;PMS1003;15950;51.112;6.966;2024-03-08T15:15:44;013;011;
26720;PMS1003;15950;51.112;6.966;2024-03-08T15:18:44;012;008;
26720;PMS1003;15950;51.112;6.966;2024-03-08T15:21:46;013;009;
26720;PMS1003;15950;51.112;6.966;2024-03-08T15:24:44;012;009;
26720;PMS1003;15950;51.112;6.966;2024-03-08T15:27:44;013;009;
26720;PMS1003;15950;51.112;6.966;2024-03-08T15:30:44;006;004;
26720;PMS1003;15950;51.112;6.966;2024-03-08T15:33:44;018;013;
26720;PMS1003;15950;51.112;6.966;2024-03-08T15:36:44;014;010;
26720;PMS1003;15950;51.112;6.966;2024-03-08T15:39:44;007;005;
26720;PMS1003;15950;51.112;6.966;2024-03-08T15:42:44;012;008;
26720;PMS1003;15950;51.112;6.966;2024-03-08T15:45:44;012;010;
26720;PMS1003;15950;51.112;6.966;2024-03-08T15:48:44;016;011;
26720;PMS1003;15950;51.112;6.966;2024-03-08T15:51:45;014;011;
26720;PMS1003;15950;51.112;6.966;2024-03-08T15:54:44;010;007;
26720;PMS1003;15950;51.112;6.966;2024-03-08T15:57:44;013;010;
26720;PMS1003;15950;51.112;6.966;2024-03-08T16:00:44;010;008;
26720;PMS1003;15950;51.112;6.966;2024-03-08T16:03:44;010;007;
26720;PMS1003;15950;51.112;6.966;2024-03-08T16:06:44;014;012;
26720;PMS1003;15950;51.112;6.966;2024-03-08T16:09:44;010;007;
26720;PMS1003;15950;51.112;6.966;2024-03-08T16:12:44;014;010;
26720;PMS1003;15950;51.112;6.966;2024-03-08T16:15:44;010;007;
26720;PMS1003;15950;51.112;6.966;2024-03-08T16:18:44;015;012;
26720;PMS1003;15950;51.112;6.966;2024-03-08T16:21:44;014;011;
26720;PMS1003;15950;51.112;6.966;2024-03-08T16:24:44;010;007;
26720;PMS1003;15950;51.112;6.966;2024-03-08T16:27:44;009;007;
26720;PMS1003;15950;51.112;6.966;2024-03-08T16:30:44;012;010;
26720;PMS1003;15950;51.112;6.966;2024-03-08T16:33:44;016;011;
26720;PMS1003;15950;51.112;6.966;2024-03-08T16:36:44;010;007;
26720;PMS1003;15950;51.112;6.966;2024-03-08T16:39:44;014;010;
26720;PMS1003;15950;51.112;6.966;2024-03-08T16:42:44;014;010;
26720;PMS1003;15950;51.112;6.966;2024-03-08T16:45:46;011;008;
26720;PMS1003;15950;51.112;6.966;2024-03-08T16:48:44;010;007;
26720;PMS1003;15950;51.112;6.966;2024-03-08T16:51:44;009;006;
26720;PMS1003;15950;51.112;6.966;2024-03-08T16:54:44;010;007;
26720;PMS1003;15950;51.112;6.966;2024-03-08T16:57:44;010;007;
26720;PMS1003;15950;51.112;6.966;2024-03-08T17:00:44;009;006;
26720;PMS1003;15950;51.112;6.966;2024-03-08T17:03:44;009;006;
26720;PMS1003;15950;51.112;6.966;2024-03-08T17:06:44;011;010;
26720;PMS1003;15950;51.112;6.966;2024-03-08T17:09:44;009;007;
26720;PMS1003;15950;51.112;6.966;2024-03-08T17:12:44;008;007;
26720;PMS1003;15950;51.112;6.966;2024-03-08T17:15:44;012;009;
26720;PMS1003;15950;51.112;6.966;2024-03-08T17:18:44;012;008;
26720;PMS1003;15950;51.112;6.966;2024-03-08T17:21:44;008;007;
26720;PMS1003;15950;51.112;6.966;2024-03-08T17:24:44;010;007;
26720;PMS1003;15950;51.112;6.966;2024-03-08T17:27:44;010;008;
26720;PMS1003;15950;51.112;6.966;2024-03-08T17:30:44;010;007;
26720;PMS1003;15950;51.112;6.966;2024-03-08T17:33:44;013;011;
26720;PMS1003;15950;51.112;6.966;2024-03-08T17:36:44;010;007;
26720;PMS1003;15950;51.112;6.966;2024-03-08T17:39:44;012;012;
26720;PMS1003;15950;51.112;6.966;2024-03-08T17:42:44;010;007;
26720;PMS1003;15950;51.112;6.966;2024-03-08T17:45:44;013;009;
26720;PMS1003;15950;51.112;6.966;2024-03-08T17:48:44;010;008;
26720;PMS1003;15950;51.112;6.966;2024-03-08T17:51:44;012;008;
26720;PMS1003;15950;51.112;6.966;2024-03-08T17:54:45;014;010;
26720;PMS1003;15950;51.112;6.966;2024-03-08T17:57:44;010;008;
26720;PMS1003;15950;51.112;6.966;2024-03-08T18:00:44;009;007;
26720;PMS1003;15950;51.112;6.966;2024-03-08T18:03:44;010;007;
26720;PMS1003;15950;51.112;6.966;2024-03-08T18:06:44;013;010;
26720;PMS1003;15950;51.112;6.966;2024-03-08T18:09:44;012;009;
26720;PMS1003;15950;51.112;6.966;2024-03-08T18:12:44;014;010;
26720;PMS1003;15950;51.112;6.966;2024-03-08T18:15:44;010;007;
26720;PMS1003;15950;51.112;6.966;2024-03-08T18:18:44;012;008;
26720;PMS1003;15950;51.112;6.966;2024-03-08T18:21:44;013;010;
26720;PMS1003;15950;51.112;6.966;2024-03-08T18:24:44;016;013;
26720;PMS1003;15950;51.112;6.966;2024-03-08T18:27:44;011;009;
26720;PMS1003;15950;51.112;6.966;2024-03-08T18:30:44;012;008;
26720;PMS1003;15950;51.112;6.966;2024-03-08T18:33:44;013;009;
26720;PMS1003;15950;51.112;6.966;2024-03-08T18:36:44;013;009;
26720;PMS1003;15950;51.112;6.966;2024-03-08T18:39:44;013;010;
26720;PMS1003;15950;51.112;6.966;2024-03-08T18:42:44;013;009;
26720;PMS1003;15950;51.112;6.966;2024-03-08T18:45:44;017;012;
26720;PMS1003;15950;51.112;6.966;2024-03-08T18:48:44;013;009;
26720;PMS1003;15950;51.112;6.966;2024-03-08T18:51:44;016;011;
26720;PMS1003;15950;51.112;6.966;2024-03-08T18:54:44;020;014;
26720;PMS1003;15950;51.112;6.966;2024-03-08T18:57:44;013;009;
26720;PMS1003;15950;51.112;6.966;2024-03-08T19:00:44;017;012;
26720;PMS1003;15950;51.112;6.966;2024-03-08T19:03:44;013;011;
26720;PMS1003;15950;51.112;6.966;2024-03-08T19:06:44;015;011;
26720;PMS1003;15950;51.112;6.966;2024-03-08T19:09:44;019;013;
26720;PMS1003;15950;51.112;6.966;2024-03-08T19:12:44;014;010;
26720;PMS1003;15950;51.112;6.966;2024-03-08T19:15:44;013;009;
26720;PMS1003;15950;51.112;6.966;2024-03-08T19:18:44;014;011;
26720;PMS1003;15950;51.112;6.966;2024-03-08T19:21:44;016;011;
26720;PMS1003;15950;51.112;6.966;2024-03-08T19:24:44;014;011;
26720;PMS1003;15950;51.112;6.966;2024-03-08T19:27:44;015;012;